HKKI

Details ICAO HKKI (KIS)
Name KISUMU
Region Kenya
Timezone Africa/Nairobi (UTC+3.0)
Plans Departing 6
Arriving 16
Stats Elevation 3,796 ft / 1,157 m (AMSL)
Location -0.086139° 34.728892°
Runways 1
Magnetic Variation 1.253° E
Sunrise 2017-12-11 03:31:59 UTC / 2017-12-11 06:31:59 Local
Sunset 2017-12-11 15:39:31 UTC / 2017-12-11 18:39:31 Local
Advertisement - Login to hide

Runways

ID Width Length Bearing (true) Bearing (mag) Surface Threshold Offset Overrun Length
07 98 ft / 30 m 6,515 ft / 1,986 m 61.41° 60.16° Asphalt 0 ft / 0 m 350 ft / 107 m
25 98 ft / 30 m 6,515 ft / 1,986 m 241.41° 240.16° Asphalt 0 ft / 0 m 190 ft / 58 m

Map

Weather


0- 5 10 15 20 25 30 35+ Temperature / ° C

Clouds and Precipitation
Forecast for 2017-12-11 12:00 UTC. Updated an hour ago

Ground ~20,000 ft ~40,000 ft Winds

METAR

HKKI 110700Z 13004KT 9999 FEW024CB SCT270 25/14 Q1018

TAF

TAF HKKI 110500Z 1106/1206 21010KT 9999 SCT024 BECMG 1108/1111 21010KT FEW025CB BKN026 TEMPO 1112/1118 VRB10KT -TSRA FEW021CB BKN080 BECMG 1120/1123 VRB03KT FEW021CB BKN080

Frequencies

Ground 121.60 MHz GND
Tower 118.80 MHz TWR
Warning: Do not use this data for real-world aviation or navigation. No guarantee of current accuracy is given.